sensor_id;sensor_type;location;lat;lon;timestamp;noise_LAeq;noise_LA_min;noise_LA_max;noise_LA01;noise_LA95
67398;Laerm;57728;50.448;18.824;2024-03-23T00:55:09;34.53;33.30;36.47;;
67398;Laerm;57728;50.448;18.824;2024-03-23T00:57:11;34.53;33.34;36.42;;
67398;Laerm;57728;50.448;18.824;2024-03-23T00:59:12;34.53;33.38;36.09;;
67398;Laerm;57728;50.448;18.824;2024-03-23T01:01:14;34.54;33.41;36.70;;
67398;Laerm;57728;50.448;18.824;2024-03-23T01:03:15;34.55;33.03;36.08;;
67398;Laerm;57728;50.448;18.824;2024-03-23T01:05:16;34.57;33.42;36.06;;
67398;Laerm;57728;50.448;18.824;2024-03-23T01:07:18;34.55;33.23;36.15;;
67398;Laerm;57728;50.448;18.824;2024-03-23T01:09:19;34.57;33.13;36.16;;
67398;Laerm;57728;50.448;18.824;2024-03-23T01:11:20;34.57;33.37;36.83;;
67398;Laerm;57728;50.448;18.824;2024-03-23T01:13:22;34.58;33.46;35.97;;
67398;Laerm;57728;50.448;18.824;2024-03-23T01:15:23;34.56;33.32;35.99;;
67398;Laerm;57728;50.448;18.824;2024-03-23T01:17:24;34.57;33.27;37.35;;
67398;Laerm;57728;50.448;18.824;2024-03-23T01:19:26;34.59;33.42;35.82;;
67398;Laerm;57728;50.448;18.824;2024-03-23T01:21:27;34.62;33.49;35.86;;
67398;Laerm;57728;50.448;18.824;2024-03-23T01:23:28;34.66;33.48;35.94;;
67398;Laerm;57728;50.448;18.824;2024-03-23T01:25:30;34.66;33.29;35.88;;
67398;Laerm;57728;50.448;18.824;2024-03-23T01:27:31;34.70;33.55;35.82;;
67398;Laerm;57728;50.448;18.824;2024-03-23T01:29:33;34.78;33.62;35.91;;
67398;Laerm;57728;50.448;18.824;2024-03-23T01:31:34;34.84;33.65;37.83;;
67398;Laerm;57728;50.448;18.824;2024-03-23T01:33:38;34.87;33.59;36.18;;
67398;Laerm;57728;50.448;18.824;2024-03-23T01:35:39;34.90;33.77;35.99;;
67398;Laerm;57728;50.448;18.824;2024-03-23T01:37:41;34.94;33.63;36.46;;
67398;Laerm;57728;50.448;18.824;2024-03-23T01:39:42;34.91;33.78;36.03;;
67398;Laerm;57728;50.448;18.824;2024-03-23T01:41:43;34.92;33.79;36.05;;
67398;Laerm;57728;50.448;18.824;2024-03-23T01:43:45;34.92;33.76;36.17;;
67398;Laerm;57728;50.448;18.824;2024-03-23T01:45:46;34.91;33.83;36.24;;
67398;Laerm;57728;50.448;18.824;2024-03-23T01:47:51;34.89;33.50;36.89;;
67398;Laerm;57728;50.448;18.824;2024-03-23T01:49:54;34.83;33.52;35.96;;
67398;Laerm;57728;50.448;18.824;2024-03-23T01:51:55;34.89;33.77;45.10;;
67398;Laerm;57728;50.448;18.824;2024-03-23T01:53:56;34.85;33.68;38.86;;
67398;Laerm;57728;50.448;18.824;2024-03-23T01:55:59;34.78;33.30;47.18;;
67398;Laerm;57728;50.448;18.824;2024-03-23T01:58:00;34.68;33.49;41.47;;
67398;Laerm;57728;50.448;18.824;2024-03-23T02:00:02;34.84;33.74;39.28;;
67398;Laerm;57728;50.448;18.824;2024-03-23T02:02:13;34.61;33.51;38.39;;
67398;Laerm;57728;50.448;18.824;2024-03-23T02:04:15;34.61;33.46;40.89;;
67398;Laerm;57728;50.448;18.824;2024-03-23T02:06:16;34.57;33.46;36.29;;
67398;Laerm;57728;50.448;18.824;2024-03-23T02:08:21;34.58;33.44;44.81;;
67398;Laerm;57728;50.448;18.824;2024-03-23T02:10:22;34.58;33.38;47.78;;
67398;Laerm;57728;50.448;18.824;2024-03-23T02:12:24;34.60;33.15;48.59;;
67398;Laerm;57728;50.448;18.824;2024-03-23T02:14:26;34.98;33.19;60.07;;
67398;Laerm;57728;50.448;18.824;2024-03-23T02:16:27;34.53;33.25;37.25;;
67398;Laerm;57728;50.448;18.824;2024-03-23T02:18:28;34.53;33.19;36.95;;
67398;Laerm;57728;50.448;18.824;2024-03-23T02:20:30;34.62;33.32;52.24;;
67398;Laerm;57728;50.448;18.824;2024-03-23T02:22:38;34.60;33.18;47.92;;
67398;Laerm;57728;50.448;18.824;2024-03-23T02:24:39;34.63;33.36;43.40;;
67398;Laerm;57728;50.448;18.824;2024-03-23T02:26:41;34.69;33.15;46.16;;
67398;Laerm;57728;50.448;18.824;2024-03-23T02:28:42;34.73;33.45;50.17;;
67398;Laerm;57728;50.448;18.824;2024-03-23T02:30:43;34.74;33.05;51.82;;
67398;Laerm;57728;50.448;18.824;2024-03-23T02:32:45;34.65;33.20;46.89;;
67398;Laerm;57728;50.448;18.824;2024-03-23T02:34:47;34.82;33.37;54.98;;
67398;Laerm;57728;50.448;18.824;2024-03-23T02:36:48;34.80;33.36;48.41;;
67398;Laerm;57728;50.448;18.824;2024-03-23T02:38:49;34.81;33.29;48.38;;
67398;Laerm;57728;50.448;18.824;2024-03-23T02:40:51;34.71;33.33;43.70;;
67398;Laerm;57728;50.448;18.824;2024-03-23T02:42:52;34.77;33.57;47.71;;
67398;Laerm;57728;50.448;18.824;2024-03-23T02:44:54;34.80;33.32;46.27;;
67398;Laerm;57728;50.448;18.824;2024-03-23T02:46:55;34.73;33.17;48.65;;
67398;Laerm;57728;50.448;18.824;2024-03-23T02:48:57;34.95;33.29;56.37;;
67398;Laerm;57728;50.448;18.824;2024-03-23T02:50:59;34.90;33.47;50.16;;
67398;Laerm;57728;50.448;18.824;2024-03-23T02:53:00;34.73;33.17;47.96;;
67398;Laerm;57728;50.448;18.824;2024-03-23T02:55:01;34.70;33.32;37.98;;
67398;Laerm;57728;50.448;18.824;2024-03-23T02:57:06;34.73;33.35;49.28;;
67398;Laerm;57728;50.448;18.824;2024-03-23T02:59:07;34.92;33.36;55.58;;
67398;Laerm;57728;50.448;18.824;2024-03-23T03:01:09;35.06;33.49;56.24;;
67398;Laerm;57728;50.448;18.824;2024-03-23T03:03:13;34.94;33.10;55.60;;
67398;Laerm;57728;50.448;18.824;2024-03-23T03:05:14;34.85;33.50;52.44;;
67398;Laerm;57728;50.448;18.824;2024-03-23T03:07:15;34.74;33.56;42.60;;
67398;Laerm;57728;50.448;18.824;2024-03-23T03:09:17;34.75;33.48;45.27;;
67398;Laerm;57728;50.448;18.824;2024-03-23T03:11:19;35.00;33.40;55.67;;
67398;Laerm;57728;50.448;18.824;2024-03-23T03:13:20;34.81;33.36;52.78;;
67398;Laerm;57728;50.448;18.824;2024-03-23T03:15:22;34.75;33.47;40.77;;
67398;Laerm;57728;50.448;18.824;2024-03-23T03:17:23;34.77;33.43;41.35;;
67398;Laerm;57728;50.448;18.824;2024-03-23T03:19:24;34.79;33.62;48.13;;
67398;Laerm;57728;50.448;18.824;2024-03-23T03:21:26;34.76;33.63;45.22;;
67398;Laerm;57728;50.448;18.824;2024-03-23T03:23:28;34.77;33.47;47.48;;
67398;Laerm;57728;50.448;18.824;2024-03-23T03:25:29;34.75;33.39;39.07;;
67398;Laerm;57728;50.448;18.824;2024-03-23T03:27:31;34.84;33.49;50.64;;
67398;Laerm;57728;50.448;18.824;2024-03-23T03:29:32;34.84;33.49;51.56;;
67398;Laerm;57728;50.448;18.824;2024-03-23T03:31:36;34.83;33.54;53.47;;
67398;Laerm;57728;50.448;18.824;2024-03-23T03:33:38;34.93;33.48;54.96;;
67398;Laerm;57728;50.448;18.824;2024-03-23T03:35:39;35.06;33.61;58.21;;
67398;Laerm;57728;50.448;18.824;2024-03-23T03:37:41;34.78;33.67;42.00;;
67398;Laerm;57728;50.448;18.824;2024-03-23T03:39:43;35.11;33.46;56.43;;
67398;Laerm;57728;50.448;18.824;2024-03-23T03:41:44;34.88;33.61;48.73;;
67398;Laerm;57728;50.448;18.824;2024-03-23T03:43:45;35.24;33.55;58.17;;
67398;Laerm;57728;50.448;18.824;2024-03-23T03:45:57;35.23;33.50;58.33;;
67398;Laerm;57728;50.448;18.824;2024-03-23T03:47:58;35.50;33.57;58.57;;
67398;Laerm;57728;50.448;18.824;2024-03-23T03:50:00;35.04;33.49;54.69;;
67398;Laerm;57728;50.448;18.824;2024-03-23T03:52:02;35.02;33.67;49.22;;
67398;Laerm;57728;50.448;18.824;2024-03-23T03:54:03;34.81;33.46;42.19;;
67398;Laerm;57728;50.448;18.824;2024-03-23T03:56:04;34.88;33.66;47.94;;
67398;Laerm;57728;50.448;18.824;2024-03-23T03:58:06;34.89;33.47;50.97;;
67398;Laerm;57728;50.448;18.824;2024-03-23T04:00:08;34.99;33.71;50.11;;
67398;Laerm;57728;50.448;18.824;2024-03-23T04:02:12;34.90;33.65;48.24;;
67398;Laerm;57728;50.448;18.824;2024-03-23T04:04:14;34.86;33.60;47.64;;
67398;Laerm;57728;50.448;18.824;2024-03-23T04:06:20;34.97;33.48;40.63;;
67398;Laerm;57728;50.448;18.824;2024-03-23T04:08:21;35.10;33.60;57.70;;
67398;Laerm;57728;50.448;18.824;2024-03-23T04:10:23;35.02;33.69;55.06;;
67398;Laerm;57728;50.448;18.824;2024-03-23T04:12:24;34.80;33.55;39.36;;
67398;Laerm;57728;50.448;18.824;2024-03-23T04:14:25;34.96;33.55;48.37;;
67398;Laerm;57728;50.448;18.824;2024-03-23T04:16:34;34.89;33.71;47.89;;
67398;Laerm;57728;50.448;18.824;2024-03-23T04:18:35;35.10;33.60;50.44;;
67398;Laerm;57728;50.448;18.824;2024-03-23T04:20:37;34.76;33.59;44.97;;
67398;Laerm;57728;50.448;18.824;2024-03-23T04:22:39;34.76;33.67;40.99;;
67398;Laerm;57728;50.448;18.824;2024-03-23T04:24:40;34.83;33.64;43.94;;
67398;Laerm;57728;50.448;18.824;2024-03-23T04:26:42;34.81;33.51;49.09;;
67398;Laerm;57728;50.448;18.824;2024-03-23T04:28:45;34.98;33.55;48.90;;
67398;Laerm;57728;50.448;18.824;2024-03-23T04:30:46;34.99;33.46;46.10;;
67398;Laerm;57728;50.448;18.824;2024-03-23T04:32:47;34.92;33.53;48.45;;
67398;Laerm;57728;50.448;18.824;2024-03-23T04:34:49;34.92;33.52;40.28;;
67398;Laerm;57728;50.448;18.824;2024-03-23T04:36:50;34.86;33.55;40.34;;
67398;Laerm;57728;50.448;18.824;2024-03-23T04:38:51;35.16;33.64;51.49;;
67398;Laerm;57728;50.448;18.824;2024-03-23T04:40:59;34.76;33.57;43.63;;
67398;Laerm;57728;50.448;18.824;2024-03-23T04:43:00;34.82;33.42;44.27;;
67398;Laerm;57728;50.448;18.824;2024-03-23T04:45:02;34.87;33.58;38.83;;
67398;Laerm;57728;50.448;18.824;2024-03-23T04:47:04;34.89;33.54;38.80;;
67398;Laerm;57728;50.448;18.824;2024-03-23T04:49:08;35.10;33.72;46.63;;
67398;Laerm;57728;50.448;18.824;2024-03-23T04:51:09;35.10;33.86;46.21;;
67398;Laerm;57728;50.448;18.824;2024-03-23T04:53:12;35.04;33.68;39.26;;
67398;Laerm;57728;50.448;18.824;2024-03-23T04:55:13;35.12;33.77;38.27;;
67398;Laerm;57728;50.448;18.824;2024-03-23T04:57:15;35.01;33.70;45.53;;
67398;Laerm;57728;50.448;18.824;2024-03-23T04:59:22;34.93;33.59;40.13;;
67398;Laerm;57728;50.448;18.824;2024-03-23T05:01:23;34.94;33.71;40.46;;
67398;Laerm;57728;50.448;18.824;2024-03-23T05:03:25;35.16;33.68;38.48;;
67398;Laerm;57728;50.448;18.824;2024-03-23T05:05:27;34.98;33.54;38.99;;
67398;Laerm;57728;50.448;18.824;2024-03-23T05:07:28;35.13;33.84;42.50;;
67398;Laerm;57728;50.448;18.824;2024-03-23T05:09:30;35.07;33.83;38.57;;
67398;Laerm;57728;50.448;18.824;2024-03-23T05:11:33;35.30;33.56;41.80;;
67398;Laerm;57728;50.448;18.824;2024-03-23T05:13:34;35.32;33.61;41.52;;
67398;Laerm;57728;50.448;18.824;2024-03-23T05:15:35;35.04;33.75;43.06;;
67398;Laerm;57728;50.448;18.824;2024-03-23T05:17:38;34.99;33.65;39.86;;
67398;Laerm;57728;50.448;18.824;2024-03-23T05:19:39;34.97;33.56;52.48;;
67398;Laerm;57728;50.448;18.824;2024-03-23T05:21:40;34.79;33.62;38.62;;
67398;Laerm;57728;50.448;18.824;2024-03-23T05:23:42;35.06;33.62;45.55;;
67398;Laerm;57728;50.448;18.824;2024-03-23T05:25:44;35.04;33.63;42.07;;
67398;Laerm;57728;50.448;18.824;2024-03-23T05:27:45;34.96;33.50;40.43;;
67398;Laerm;57728;50.448;18.824;2024-03-23T05:29:47;35.10;33.73;51.01;;
67398;Laerm;57728;50.448;18.824;2024-03-23T05:31:51;35.31;33.73;42.66;;
67398;Laerm;57728;50.448;18.824;2024-03-23T05:33:52;34.96;33.58;39.77;;
67398;Laerm;57728;50.448;18.824;2024-03-23T05:35:59;35.21;33.44;42.64;;
67398;Laerm;57728;50.448;18.824;2024-03-23T05:38:01;37.07;33.48;45.84;;
67398;Laerm;57728;50.448;18.824;2024-03-23T05:40:02;35.27;33.83;39.73;;
67398;Laerm;57728;50.448;18.824;2024-03-23T05:42:05;34.95;33.51;41.74;;
67398;Laerm;57728;50.448;18.824;2024-03-23T05:44:06;34.92;33.61;46.22;;
67398;Laerm;57728;50.448;18.824;2024-03-23T05:46:07;35.21;33.67;40.26;;
67398;Laerm;57728;50.448;18.824;2024-03-23T05:48:11;35.26;33.75;51.74;;
67398;Laerm;57728;50.448;18.824;2024-03-23T05:50:12;35.51;33.70;48.26;;
67398;Laerm;57728;50.448;18.824;2024-03-23T05:52:14;36.13;33.54;64.60;;
67398;Laerm;57728;50.448;18.824;2024-03-23T05:54:15;35.09;33.63;43.62;;
67398;Laerm;57728;50.448;18.824;2024-03-23T05:56:20;34.85;33.54;38.17;;
67398;Laerm;57728;50.448;18.824;2024-03-23T05:58:21;34.99;33.62;38.96;;
67398;Laerm;57728;50.448;18.824;2024-03-23T06:00:23;34.87;33.59;38.64;;
67398;Laerm;57728;50.448;18.824;2024-03-23T06:02:27;34.89;33.51;38.71;;
67398;Laerm;57728;50.448;18.824;2024-03-23T06:04:28;34.79;33.18;41.78;;
67398;Laerm;57728;50.448;18.824;2024-03-23T06:06:30;34.93;33.51;39.63;;
67398;Laerm;57728;50.448;18.824;2024-03-23T06:08:31;34.86;33.65;37.76;;
67398;Laerm;57728;50.448;18.824;2024-03-23T06:10:32;34.95;33.40;38.53;;
67398;Laerm;57728;50.448;18.824;2024-03-23T06:12:34;34.93;33.59;50.55;;
67398;Laerm;57728;50.448;18.824;2024-03-23T06:14:35;34.91;33.42;38.70;;
67398;Laerm;57728;50.448;18.824;2024-03-23T06:16:36;35.08;33.56;42.04;;
67398;Laerm;57728;50.448;18.824;2024-03-23T06:18:39;35.41;33.70;42.51;;
67398;Laerm;57728;50.448;18.824;2024-03-23T06:20:40;34.97;33.29;39.61;;
67398;Laerm;57728;50.448;18.824;2024-03-23T06:22:41;34.99;33.75;45.00;;
67398;Laerm;57728;50.448;18.824;2024-03-23T06:24:44;35.10;33.59;41.38;;
67398;Laerm;57728;50.448;18.824;2024-03-23T06:26:45;35.02;33.51;42.58;;
67398;Laerm;57728;50.448;18.824;2024-03-23T06:28:47;35.30;33.44;47.26;;
67398;Laerm;57728;50.448;18.824;2024-03-23T06:30:49;35.51;33.77;43.10;;
67398;Laerm;57728;50.448;18.824;2024-03-23T06:32:50;35.48;33.68;44.18;;
67398;Laerm;57728;50.448;18.824;2024-03-23T06:34:51;35.29;33.68;45.36;;
67398;Laerm;57728;50.448;18.824;2024-03-23T06:36:53;35.82;33.83;43.91;;
67398;Laerm;57728;50.448;18.824;2024-03-23T06:38:54;35.01;33.71;38.71;;
67398;Laerm;57728;50.448;18.824;2024-03-23T06:40:55;35.17;33.63;41.82;;
67398;Laerm;57728;50.448;18.824;2024-03-23T06:42:57;35.06;33.74;40.07;;
67398;Laerm;57728;50.448;18.824;2024-03-23T06:44:58;35.30;33.69;42.28;;
67398;Laerm;57728;50.448;18.824;2024-03-23T06:46:59;35.05;33.64;38.79;;
67398;Laerm;57728;50.448;18.824;2024-03-23T06:49:01;35.00;33.75;42.63;;
67398;Laerm;57728;50.448;18.824;2024-03-23T06:51:02;35.45;33.61;48.24;;
67398;Laerm;57728;50.448;18.824;2024-03-23T06:53:04;35.09;33.54;40.86;;
67398;Laerm;57728;50.448;18.824;2024-03-23T06:55:08;35.06;33.62;40.78;;
67398;Laerm;57728;50.448;18.824;2024-03-23T06:57:09;35.08;33.57;42.16;;
67398;Laerm;57728;50.448;18.824;2024-03-23T06:59:11;34.99;33.64;39.39;;
67398;Laerm;57728;50.448;18.824;2024-03-23T07:01:13;35.30;33.55;43.96;;
67398;Laerm;57728;50.448;18.824;2024-03-23T07:03:16;34.96;33.61;39.73;;
67398;Laerm;57728;50.448;18.824;2024-03-23T07:05:17;35.47;33.62;46.12;;
67398;Laerm;57728;50.448;18.824;2024-03-23T07:07:19;35.04;33.71;39.30;;
67398;Laerm;57728;50.448;18.824;2024-03-23T07:09:20;35.14;33.74;42.07;;
67398;Laerm;57728;50.448;18.824;2024-03-23T07:11:26;35.03;33.51;41.46;;
67398;Laerm;57728;50.448;18.824;2024-03-23T07:13:28;35.16;33.39;44.32;;
67398;Laerm;57728;50.448;18.824;2024-03-23T07:15:33;35.85;33.51;50.91;;
67398;Laerm;57728;50.448;18.824;2024-03-23T07:17:34;36.09;33.70;52.49;;
67398;Laerm;57728;50.448;18.824;2024-03-23T07:19:36;34.96;33.65;43.25;;
67398;Laerm;57728;50.448;18.824;2024-03-23T07:21:37;35.52;33.65;49.99;;
67398;Laerm;57728;50.448;18.824;2024-03-23T07:23:42;34.98;33.53;39.78;;
67398;Laerm;57728;50.448;18.824;2024-03-23T07:25:59;36.86;33.59;57.48;;
67398;Laerm;57728;50.448;18.824;2024-03-23T07:28:01;37.50;33.52;56.51;;
67398;Laerm;57728;50.448;18.824;2024-03-23T07:30:02;38.06;33.81;56.82;;
67398;Laerm;57728;50.448;18.824;2024-03-23T07:32:04;36.00;33.77;53.05;;
67398;Laerm;57728;50.448;18.824;2024-03-23T07:34:05;39.72;33.53;61.99;;
67398;Laerm;57728;50.448;18.824;2024-03-23T07:36:07;37.82;33.83;54.75;;
67398;Laerm;57728;50.448;18.824;2024-03-23T07:38:12;38.28;33.85;56.26;;
67398;Laerm;57728;50.448;18.824;2024-03-23T07:40:13;35.93;33.63;51.54;;
67398;Laerm;57728;50.448;18.824;2024-03-23T07:42:15;36.08;33.82;54.78;;
67398;Laerm;57728;50.448;18.824;2024-03-23T07:44:17;38.22;33.84;58.89;;
67398;Laerm;57728;50.448;18.824;2024-03-23T07:46:18;35.52;33.66;46.14;;
67398;Laerm;57728;50.448;18.824;2024-03-23T07:48:23;36.19;33.61;54.82;;
67398;Laerm;57728;50.448;18.824;2024-03-23T07:50:25;36.14;33.69;56.59;;
67398;Laerm;57728;50.448;18.824;2024-03-23T07:52:29;35.64;33.67;49.50;;
67398;Laerm;57728;50.448;18.824;2024-03-23T07:54:30;35.21;33.67;47.53;;
67398;Laerm;57728;50.448;18.824;2024-03-23T07:56:32;36.14;33.45;51.21;;
67398;Laerm;57728;50.448;18.824;2024-03-23T07:58:34;35.85;33.64;45.98;;
67398;Laerm;57728;50.448;18.824;2024-03-23T08:00:35;35.99;33.54;48.91;;
67398;Laerm;57728;50.448;18.824;2024-03-23T08:02:37;36.65;33.48;52.52;;
67398;Laerm;57728;50.448;18.824;2024-03-23T08:04:38;35.49;33.88;46.47;;
67398;Laerm;57728;50.448;18.824;2024-03-23T08:06:39;36.49;33.73;52.56;;
67398;Laerm;57728;50.448;18.824;2024-03-23T08:08:44;36.96;33.79;57.33;;
67398;Laerm;57728;50.448;18.824;2024-03-23T08:10:50;38.41;33.90;58.90;;
67398;Laerm;57728;50.448;18.824;2024-03-23T08:12:51;37.17;33.77;59.12;;
67398;Laerm;57728;50.448;18.824;2024-03-23T08:14:53;36.20;33.87;53.16;;
67398;Laerm;57728;50.448;18.824;2024-03-23T08:16:55;35.66;33.55;46.56;;
67398;Laerm;57728;50.448;18.824;2024-03-23T08:18:56;36.17;33.70;50.91;;
67398;Laerm;57728;50.448;18.824;2024-03-23T08:21:05;34.86;33.64;43.02;;
67398;Laerm;57728;50.448;18.824;2024-03-23T08:23:06;35.73;33.38;48.94;;
67398;Laerm;57728;50.448;18.824;2024-03-23T08:25:08;34.92;33.46;41.48;;
67398;Laerm;57728;50.448;18.824;2024-03-23T08:27:09;35.24;33.28;47.26;;
67398;Laerm;57728;50.448;18.824;2024-03-23T08:29:10;35.25;33.43;42.60;;
67398;Laerm;57728;50.448;18.824;2024-03-23T08:31:13;35.99;33.89;51.42;;
67398;Laerm;57728;50.448;18.824;2024-03-23T08:33:16;35.70;33.40;52.04;;
67398;Laerm;57728;50.448;18.824;2024-03-23T08:35:18;35.65;33.92;43.62;;
67398;Laerm;57728;50.448;18.824;2024-03-23T08:37:19;35.42;34.10;44.34;;
67398;Laerm;57728;50.448;18.824;2024-03-23T08:39:21;36.46;33.84;52.48;;
67398;Laerm;57728;50.448;18.824;2024-03-23T08:41:23;37.32;33.52;52.08;;
67398;Laerm;57728;50.448;18.824;2024-03-23T08:43:26;36.32;33.51;49.95;;
67398;Laerm;57728;50.448;18.824;2024-03-23T08:45:28;35.92;33.56;46.73;;
67398;Laerm;57728;50.448;18.824;2024-03-23T08:47:29;35.32;33.53;47.19;;
67398;Laerm;57728;50.448;18.824;2024-03-23T08:49:30;35.62;33.94;45.88;;
67398;Laerm;57728;50.448;18.824;2024-03-23T08:51:32;35.02;33.26;42.05;;
67398;Laerm;57728;50.448;18.824;2024-03-23T08:53:35;34.96;33.24;42.26;;
67398;Laerm;57728;50.448;18.824;2024-03-23T08:55:36;35.93;33.53;54.34;;
67398;Laerm;57728;50.448;18.824;2024-03-23T08:57:38;35.54;33.64;43.97;;
67398;Laerm;57728;50.448;18.824;2024-03-23T08:59:39;35.29;33.76;42.61;;
67398;Laerm;57728;50.448;18.824;2024-03-23T09:01:40;35.25;33.40;41.28;;
67398;Laerm;57728;50.448;18.824;2024-03-23T09:03:42;37.11;33.43;47.64;;
67398;Laerm;57728;50.448;18.824;2024-03-23T09:05:43;36.05;33.20;51.94;;
67398;Laerm;57728;50.448;18.824;2024-03-23T09:07:44;35.71;33.44;48.69;;
67398;Laerm;57728;50.448;18.824;2024-03-23T09:09:46;38.99;33.46;61.27;;
67398;Laerm;57728;50.448;18.824;2024-03-23T09:11:47;41.00;33.41;63.63;;
67398;Laerm;57728;50.448;18.824;2024-03-23T09:13:48;36.73;33.32;54.76;;
67398;Laerm;57728;50.448;18.824;2024-03-23T09:15:52;35.53;33.36;50.95;;
67398;Laerm;57728;50.448;18.824;2024-03-23T09:17:59;35.63;33.08;55.73;;
67398;Laerm;57728;50.448;18.824;2024-03-23T09:20:00;38.05;33.49;62.41;;
67398;Laerm;57728;50.448;18.824;2024-03-23T09:22:02;37.41;33.52;54.75;;
67398;Laerm;57728;50.448;18.824;2024-03-23T09:24:04;36.51;33.35;52.70;;
67398;Laerm;57728;50.448;18.824;2024-03-23T09:26:06;37.80;33.55;58.73;;
67398;Laerm;57728;50.448;18.824;2024-03-23T09:28:12;37.62;33.10;59.84;;
67398;Laerm;57728;50.448;18.824;2024-03-23T09:30:16;35.35;33.44;41.59;;
67398;Laerm;57728;50.448;18.824;2024-03-23T09:32:18;35.36;33.79;39.74;;
67398;Laerm;57728;50.448;18.824;2024-03-23T09:34:20;35.47;33.89;46.34;;
67398;Laerm;57728;50.448;18.824;2024-03-23T09:36:21;37.37;33.54;53.76;;
67398;Laerm;57728;50.448;18.824;2024-03-23T09:38:23;37.14;33.66;56.29;;
67398;Laerm;57728;50.448;18.824;2024-03-23T09:40:25;36.27;33.33;53.58;;
67398;Laerm;57728;50.448;18.824;2024-03-23T09:42:26;40.01;33.83;63.25;;
67398;Laerm;57728;50.448;18.824;2024-03-23T09:44:28;37.12;33.63;53.78;;
67398;Laerm;57728;50.448;18.824;2024-03-23T09:46:31;38.11;33.55;60.62;;
67398;Laerm;57728;50.448;18.824;2024-03-23T09:48:36;36.92;33.54;53.98;;
67398;Laerm;57728;50.448;18.824;2024-03-23T09:50:39;36.00;33.64;49.48;;
67398;Laerm;57728;50.448;18.824;2024-03-23T09:52:41;38.38;33.68;63.25;;
67398;Laerm;57728;50.448;18.824;2024-03-23T09:54:44;38.52;33.38;57.00;;
67398;Laerm;57728;50.448;18.824;2024-03-23T09:56:46;37.24;33.14;59.27;;
67398;Laerm;57728;50.448;18.824;2024-03-23T09:58:47;36.99;33.62;54.09;;
67398;Laerm;57728;50.448;18.824;2024-03-23T10:00:49;35.86;33.16;49.83;;
67398;Laerm;57728;50.448;18.824;2024-03-23T10:02:50;36.52;33.67;52.36;;
67398;Laerm;57728;50.448;18.824;2024-03-23T10:04:51;35.92;33.50;50.47;;
67398;Laerm;57728;50.448;18.824;2024-03-23T10:06:53;35.52;33.43;49.86;;
67398;Laerm;57728;50.448;18.824;2024-03-23T10:08:54;35.16;33.47;44.74;;
67398;Laerm;57728;50.448;18.824;2024-03-23T10:10:56;37.06;33.19;57.28;;
67398;Laerm;57728;50.448;18.824;2024-03-23T10:12:58;35.89;33.36;55.32;;
67398;Laerm;57728;50.448;18.824;2024-03-23T10:14:59;35.82;33.26;48.22;;
67398;Laerm;57728;50.448;18.824;2024-03-23T10:17:19;34.80;33.21;40.66;;
67398;Laerm;57728;50.448;18.824;2024-03-23T10:19:31;34.71;33.18;39.32;;
67398;Laerm;57728;50.448;18.824;2024-03-23T10:21:32;34.80;33.14;44.54;;
67398;Laerm;57728;50.448;18.824;2024-03-23T10:23:36;35.14;33.07;48.90;;
67398;Laerm;57728;50.448;18.824;2024-03-23T10:25:37;34.68;32.96;44.73;;
67398;Laerm;57728;50.448;18.824;2024-03-23T10:27:38;34.62;33.15;39.03;;
67398;Laerm;57728;50.448;18.824;2024-03-23T10:29:41;34.50;33.09;44.61;;
67398;Laerm;57728;50.448;18.824;2024-03-23T10:31:42;35.53;33.16;53.94;;
67398;Laerm;57728;50.448;18.824;2024-03-23T10:33:49;36.10;33.30;56.90;;
67398;Laerm;57728;50.448;18.824;2024-03-23T10:35:51;35.79;33.23;51.22;;
67398;Laerm;57728;50.448;18.824;2024-03-23T10:37:54;35.72;33.25;49.29;;
67398;Laerm;57728;50.448;18.824;2024-03-23T10:39:56;35.16;32.95;49.89;;
67398;Laerm;57728;50.448;18.824;2024-03-23T10:42:02;35.21;33.19;53.39;;
67398;Laerm;57728;50.448;18.824;2024-03-23T10:44:05;34.94;32.93;44.07;;
67398;Laerm;57728;50.448;18.824;2024-03-23T10:46:08;34.71;33.25;41.87;;
67398;Laerm;57728;50.448;18.824;2024-03-23T10:48:10;34.64;32.91;40.66;;
67398;Laerm;57728;50.448;18.824;2024-03-23T10:50:11;34.51;33.12;39.02;;
67398;Laerm;57728;50.448;18.824;2024-03-23T10:52:12;35.48;32.83;49.75;;
67398;Laerm;57728;50.448;18.824;2024-03-23T10:54:14;35.59;33.14;53.57;;
67398;Laerm;57728;50.448;18.824;2024-03-23T10:56:18;36.19;33.07;50.02;;
67398;Laerm;57728;50.448;18.824;2024-03-23T10:58:37;35.08;33.14;50.30;;
67398;Laerm;57728;50.448;18.824;2024-03-23T11:00:40;35.25;33.14;50.04;;
67398;Laerm;57728;50.448;18.824;2024-03-23T11:02:41;36.23;33.32;47.74;;
67398;Laerm;57728;50.448;18.824;2024-03-23T11:04:42;37.06;33.49;55.74;;
67398;Laerm;57728;50.448;18.824;2024-03-23T11:06:45;35.70;33.24;51.17;;
67398;Laerm;57728;50.448;18.824;2024-03-23T11:08:46;34.92;33.28;41.54;;
67398;Laerm;57728;50.448;18.824;2024-03-23T11:10:47;36.45;33.38;54.87;;
67398;Laerm;57728;50.448;18.824;2024-03-23T11:12:48;43.09;33.33;63.51;;
67398;Laerm;57728;50.448;18.824;2024-03-23T11:15:11;35.15;33.35;45.48;;
67398;Laerm;57728;50.448;18.824;2024-03-23T11:17:18;37.01;33.24;53.32;;
67398;Laerm;57728;50.448;18.824;2024-03-23T11:19:37;38.41;33.53;53.05;;
67398;Laerm;57728;50.448;18.824;2024-03-23T11:21:55;35.25;33.20;49.92;;
67398;Laerm;57728;50.448;18.824;2024-03-23T11:24:15;36.23;33.39;61.62;;
67398;Laerm;57728;50.448;18.824;2024-03-23T11:26:17;36.47;32.97;50.51;;
67398;Laerm;57728;50.448;18.824;2024-03-23T11:28:18;36.13;33.47;54.49;;
67398;Laerm;57728;50.448;18.824;2024-03-23T11:30:21;36.46;33.20;60.29;;
67398;Laerm;57728;50.448;18.824;2024-03-23T11:32:26;35.44;33.04;47.10;;
67398;Laerm;57728;50.448;18.824;2024-03-23T11:34:27;38.01;33.30;54.43;;
67398;Laerm;57728;50.448;18.824;2024-03-23T11:36:28;36.39;33.29;51.59;;
67398;Laerm;57728;50.448;18.824;2024-03-23T11:38:36;37.77;33.38;58.30;;
67398;Laerm;57728;50.448;18.824;2024-03-23T11:40:50;40.57;33.51;62.38;;
67398;Laerm;57728;50.448;18.824;2024-03-23T11:43:06;39.74;33.38;59.93;;
67398;Laerm;57728;50.448;18.824;2024-03-23T11:45:09;45.19;34.22;71.49;;
67398;Laerm;57728;50.448;18.824;2024-03-23T11:47:10;41.19;34.74;58.57;;
67398;Laerm;57728;50.448;18.824;2024-03-23T11:49:28;36.36;33.17;48.68;;
67398;Laerm;57728;50.448;18.824;2024-03-23T11:51:31;35.71;33.53;50.26;;
67398;Laerm;57728;50.448;18.824;2024-03-23T11:53:35;38.58;33.78;57.99;;
67398;Laerm;57728;50.448;18.824;2024-03-23T11:55:52;36.12;33.41;48.43;;
67398;Laerm;57728;50.448;18.824;2024-03-23T11:57:54;36.52;33.09;58.35;;
67398;Laerm;57728;50.448;18.824;2024-03-23T11:59:55;37.04;33.44;51.74;;
67398;Laerm;57728;50.448;18.824;2024-03-23T12:01:56;39.02;33.57;55.03;;
67398;Laerm;57728;50.448;18.824;2024-03-23T12:03:58;37.45;33.67;56.33;;
67398;Laerm;57728;50.448;18.824;2024-03-23T12:06:01;37.54;33.45;57.82;;
67398;Laerm;57728;50.448;18.824;2024-03-23T12:10:26;40.88;33.41;61.03;;
67398;Laerm;57728;50.448;18.824;2024-03-23T12:12:27;42.32;33.57;64.98;;